Time;durP1;ratioP1;P1;durP2;ratioP2;P2;SDS_P1;SDS_P2;PMS_P1;PMS_P2;Temp;Humidity;BMP_temperature;BMP_pressure;BME280_temperature;BME280_humidity;BME280_pressure;Samples;Min_cycle;Max_cycle;Signal;HPM_P1;HPM_P2
2022/01/08 00:01:14;;;;;;;18.67;11.75;;;;;;;2.88;75.74;99913.47;2866701;82;21035;-72
2022/01/08 00:05:17;;;;;;;22.20;12.98;;;;;;;2.89;75.89;99914.67;2850533;82;21589;-72
2022/01/08 00:09:18;;;;;;;16.42;11.78;;;;;;;2.79;76.57;99917.45;2873927;82;21020;-72
2022/01/08 00:13:21;;;;;;;16.25;10.78;;;;;;;2.74;76.84;99907.64;2902092;81;21036;-72
2022/01/08 00:17:23;;;;;;;14.30;10.08;;;;;;;2.63;77.49;99903.84;2902094;82;21075;-72
2022/01/08 00:21:25;;;;;;;16.40;10.98;;;;;;;2.63;77.15;99899.91;2900836;81;21043;-72
2022/01/08 00:25:27;;;;;;;17.15;8.68;;;;;;;2.61;76.87;99897.83;2882580;82;21091;-72
2022/01/08 00:29:29;;;;;;;18.50;11.12;;;;;;;2.61;76.10;99896.97;2892431;81;21622;-72
2022/01/08 00:33:30;;;;;;;16.73;10.58;;;;;;;2.53;75.15;99880.32;2880997;82;21070;-72
2022/01/08 00:37:34;;;;;;;11.93;8.05;;;;;;;2.55;73.77;99879.31;2893647;82;21039;-73
2022/01/08 00:41:35;;;;;;;23.55;12.98;;;;;;;2.51;73.35;99878.25;2863160;82;21038;-72
2022/01/08 00:45:37;;;;;;;23.07;15.28;;;;;;;2.54;72.92;99888.58;2887117;82;21008;-72
2022/01/08 00:49:39;;;;;;;19.65;9.48;;;;;;;2.59;72.76;99885.70;2896706;81;21570;-72
2022/01/08 00:53:42;;;;;;;15.60;10.70;;;;;;;2.57;72.71;99888.44;2896818;82;21008;-72
2022/01/08 00:57:45;;;;;;;22.48;11.83;;;;;;;2.70;72.65;99889.43;2896640;82;21028;-72
2022/01/08 01:01:47;;;;;;;13.95;10.05;;;;;;;2.77;72.03;99894.36;2896649;82;21527;-71
2022/01/08 01:05:49;;;;;;;14.45;10.08;;;;;;;2.75;71.91;99890.95;2896640;82;21052;-72
2022/01/08 01:09:51;;;;;;;23.60;12.60;;;;;;;2.73;72.06;99884.48;2896812;82;21028;-71
2022/01/08 01:13:55;;;;;;;12.35;10.78;;;;;;;2.80;71.99;99884.52;2896712;82;21520;-71
2022/01/08 01:17:56;;;;;;;16.97;12.68;;;;;;;2.80;71.94;99883.20;2896842;82;21066;-72
2022/01/08 01:22:00;;;;;;;18.27;10.53;;;;;;;2.84;71.95;99865.49;2897103;81;21529;-72
2022/01/08 01:26:02;;;;;;;19.52;11.25;;;;;;;2.87;72.02;99857.91;2896856;82;20972;-72
2022/01/08 01:30:17;;;;;;;17.98;12.40;;;;;;;2.85;72.38;99846.17;2910263;81;21476;-72
2022/01/08 01:47:02;;;;;;;14.33;9.78;;;;;;;2.80;72.81;99833.77;2911767;81;21080;-72
2022/01/08 01:51:04;;;;;;;14.18;10.38;;;;;;;2.76;73.19;99836.20;2911821;81;21102;-72
2022/01/08 01:55:09;;;;;;;14.98;10.90;;;;;;;2.80;73.23;99840.34;2911856;81;21409;-72
2022/01/08 01:59:14;;;;;;;22.75;11.60;;;;;;;2.83;73.54;99838.84;2912004;81;21007;-72
2022/01/08 02:03:16;;;;;;;24.85;13.93;;;;;;;2.80;73.75;99842.96;2911804;81;21468;-72
2022/01/08 02:07:19;;;;;;;20.95;9.68;;;;;;;2.82;73.81;99834.52;2911423;81;21039;-72
2022/01/08 02:11:21;;;;;;;18.67;11.60;;;;;;;2.91;73.61;99833.98;2911992;81;21035;-72
2022/01/08 02:15:22;;;;;;;23.40;11.25;;;;;;;2.92;74.12;99834.84;2911748;81;21019;-72
2022/01/08 02:19:26;;;;;;;15.48;11.03;;;;;;;2.91;74.55;99832.67;2912149;81;21075;-72
2022/01/08 02:23:30;;;;;;;14.23;10.80;;;;;;;2.84;74.70;99825.60;2911734;81;21072;-72
2022/01/08 02:27:32;;;;;;;17.60;13.18;;;;;;;2.83;74.68;99828.34;2909610;81;21079;-72
2022/01/08 02:31:34;;;;;;;13.20;11.60;;;;;;;2.78;74.93;99812.83;2902006;82;21052;-72
2022/01/08 02:35:36;;;;;;;17.70;10.75;;;;;;;2.81;74.82;99806.08;2902201;82;21059;-72
2022/01/08 02:39:41;;;;;;;19.10;12.13;;;;;;;2.81;74.79;99807.88;2902155;82;21024;-72
2022/01/08 02:43:45;;;;;;;15.40;10.38;;;;;;;2.79;74.79;99811.06;2901842;82;21698;-73
2022/01/08 02:47:48;;;;;;;13.05;9.85;;;;;;;2.79;74.67;99807.12;2901860;82;21083;-72
2022/01/08 02:51:50;;;;;;;15.35;9.73;;;;;;;2.68;75.02;99803.80;2902180;82;21509;-71
2022/01/08 02:55:51;;;;;;;14.33;8.48;;;;;;;2.64;74.92;99797.86;2902165;81;20956;-72
2022/01/08 02:59:54;;;;;;;13.22;10.15;;;;;;;2.62;75.18;99797.55;2902021;81;20988;-72
2022/01/08 03:03:57;;;;;;;12.70;8.78;;;;;;;2.62;75.21;99790.99;2901822;82;21082;-72
2022/01/08 03:07:59;;;;;;;13.13;9.08;;;;;;;2.53;75.53;99792.36;2901756;82;21118;-72
2022/01/08 03:12:01;;;;;;;13.15;9.70;;;;;;;2.50;75.74;99804.34;2902138;81;21067;-72
2022/01/08 03:16:03;;;;;;;11.50;8.88;;;;;;;2.58;75.70;99800.84;2902062;81;21528;-72
2022/01/08 03:20:11;;;;;;;13.20;9.63;;;;;;;2.54;75.57;99788.80;2901893;82;21086;-72
2022/01/08 03:24:16;;;;;;;13.88;9.98;;;;;;;2.55;75.88;99786.55;2901858;82;21075;-72
2022/01/08 03:28:18;;;;;;;14.80;9.70;;;;;;;2.59;75.53;99779.35;2905133;81;21047;-71
2022/01/08 03:32:20;;;;;;;11.60;7.80;;;;;;;2.56;75.25;99780.39;2911666;81;21353;-72
2022/01/08 03:36:25;;;;;;;12.15;8.65;;;;;;;2.55;75.30;99768.17;2911738;81;21084;-72
2022/01/08 03:40:26;;;;;;;11.20;8.53;;;;;;;2.50;75.11;99776.78;2912201;81;21078;-72
2022/01/08 03:44:29;;;;;;;15.35;8.53;;;;;;;2.50;75.23;99771.53;2911862;81;21011;-72
2022/01/08 03:48:45;;;;;;;11.33;7.95;;;;;;;2.51;75.42;99769.28;2911516;81;21012;-72
2022/01/08 03:52:37;;;;;;;10.58;8.68;;;;;;;2.51;75.64;99765.34;2909553;81;21059;-71
2022/01/08 03:56:39;;;;;;;14.03;8.53;;;;;;;2.43;75.53;99767.95;2911767;81;21066;-72
2022/01/08 04:00:40;;;;;;;11.18;8.00;;;;;;;2.37;75.59;99764.81;2911946;81;21078;-72
2022/01/08 04:04:42;;;;;;;14.43;9.08;;;;;;;2.37;75.44;99759.11;2912082;81;21055;-72
2022/01/08 04:08:46;;;;;;;15.15;8.93;;;;;;;2.36;75.45;99769.23;2911753;81;21027;-72
2022/01/08 04:12:56;;;;;;;13.90;8.85;;;;;;;2.35;75.43;99762.27;2872345;82;21073;-72
2022/01/08 04:16:54;;;;;;;13.65;9.68;;;;;;;2.34;75.52;99762.37;2871584;82;21042;-72
2022/01/08 04:24:58;;;;;;;12.37;8.90;;;;;;;2.40;75.53;99761.56;2872195;82;21035;-72
2022/01/08 04:29:00;;;;;;;10.13;9.03;;;;;;;2.40;75.40;99756.77;2869590;82;20999;-72
2022/01/08 04:33:01;;;;;;;12.93;9.73;;;;;;;2.40;75.48;99759.39;2866144;83;21007;-72
2022/01/08 04:37:03;;;;;;;12.68;8.55;;;;;;;2.42;75.16;99754.44;2815002;84;21611;-72
2022/01/08 04:41:05;;;;;;;12.40;9.73;;;;;;;2.44;75.24;99760.90;2865997;83;21087;-73
2022/01/08 04:45:07;;;;;;;15.93;9.48;;;;;;;2.45;75.32;99762.59;2815664;84;21050;-72
2022/01/08 04:49:10;;;;;;;23.50;10.13;;;;;;;2.38;75.79;99759.95;2866160;83;21019;-71
2022/01/08 04:53:12;;;;;;;14.03;9.78;;;;;;;2.41;75.62;99754.06;2865789;83;21097;-72
2022/01/08 04:57:14;;;;;;;14.33;9.98;;;;;;;2.49;76.02;99750.15;2866449;83;20987;-72
2022/01/08 05:01:18;;;;;;;13.68;8.30;;;;;;;2.43;76.53;99750.88;2815644;84;20959;-72
2022/01/08 05:05:20;;;;;;;14.43;10.40;;;;;;;2.53;76.58;99750.34;2852451;81;21085;-72
2022/01/08 05:09:22;;;;;;;16.85;10.82;;;;;;;2.57;76.83;99749.27;2844843;83;20995;-71
2022/01/08 05:13:24;;;;;;;14.58;10.98;;;;;;;2.58;76.88;99744.39;2816637;83;21011;-72
2022/01/08 05:17:30;;;;;;;11.33;8.75;;;;;;;2.57;76.76;99742.22;2832788;83;21499;-72
2022/01/08 05:21:32;;;;;;;22.00;11.03;;;;;;;2.63;76.47;99742.78;2865806;83;21094;-72
2022/01/08 05:25:34;;;;;;;14.63;9.20;;;;;;;2.71;75.95;99738.78;2865962;83;21042;-72
2022/01/08 05:29:36;;;;;;;16.00;11.93;;;;;;;2.80;75.58;99736.58;2866183;82;21011;-72
2022/01/08 05:33:37;;;;;;;14.07;9.85;;;;;;;2.82;75.41;99736.02;2866266;83;20967;-72
2022/01/08 05:37:39;;;;;;;11.03;8.55;;;;;;;2.79;75.47;99732.26;2866568;83;21561;-72
2022/01/08 05:41:41;;;;;;;16.65;10.80;;;;;;;2.75;75.52;99742.09;2866292;83;21526;-72
2022/01/08 05:45:43;;;;;;;12.95;9.28;;;;;;;2.80;75.53;99737.41;2866301;83;21030;-72
2022/01/08 05:49:44;;;;;;;16.93;10.25;;;;;;;2.68;75.66;99737.66;2866087;83;21596;-72
2022/01/08 05:53:46;;;;;;;13.90;8.88;;;;;;;2.74;75.66;99733.83;2866523;83;21025;-72
2022/01/08 05:57:48;;;;;;;15.15;10.55;;;;;;;2.76;75.58;99736.38;2866651;83;21011;-72
2022/01/08 06:01:50;;;;;;;14.47;9.80;;;;;;;2.80;75.89;99743.97;2844416;83;21021;-72
2022/01/08 06:05:52;;;;;;;13.35;9.18;;;;;;;2.80;76.12;99741.34;2866593;83;21097;-72
2022/01/08 06:09:54;;;;;;;17.73;10.78;;;;;;;2.75;76.01;99742.54;2815649;84;20983;-72
2022/01/08 06:13:57;;;;;;;16.90;12.00;;;;;;;2.74;76.48;99744.34;2866575;83;21026;-72
2022/01/08 06:17:58;;;;;;;17.95;13.25;;;;;;;2.69;76.91;99747.22;2854859;83;20967;-72
2022/01/08 06:22:01;;;;;;;17.67;12.13;;;;;;;2.74;76.95;99752.67;2855144;83;20987;-72
2022/01/08 06:26:04;;;;;;;15.63;10.20;;;;;;;2.74;77.01;99755.30;2854933;83;21065;-72
2022/01/08 06:30:07;;;;;;;16.87;11.68;;;;;;;2.81;76.70;99760.59;2830982;83;21587;-72
2022/01/08 06:34:10;;;;;;;12.73;8.95;;;;;;;2.87;76.48;99752.34;2811299;84;21023;-72
2022/01/08 06:38:12;;;;;;;14.58;10.95;;;;;;;2.93;76.34;99757.72;2811640;84;21046;-72
2022/01/08 06:42:13;;;;;;;13.18;10.25;;;;;;;3.02;76.33;99757.64;2811895;84;21060;-72
2022/01/08 06:46:15;;;;;;;17.90;11.95;;;;;;;3.00;76.50;99764.30;2811435;84;21047;-72
2022/01/08 06:50:17;;;;;;;14.98;10.25;;;;;;;2.96;75.79;99762.78;2811478;83;21080;-72
2022/01/08 06:54:19;;;;;;;17.70;12.13;;;;;;;2.94;75.61;99762.86;2811521;84;21031;-72
2022/01/08 06:58:24;;;;;;;22.22;13.28;;;;;;;2.93;75.71;99772.17;2811624;84;20972;-72
2022/01/08 07:02:24;;;;;;;16.55;10.23;;;;;;;2.85;75.75;99766.91;2811613;84;21585;-72
2022/01/08 07:06:26;;;;;;;18.40;12.18;;;;;;;2.76;76.15;99771.84;2811664;84;21079;-72
2022/01/08 07:10:29;;;;;;;22.65;12.58;;;;;;;2.79;76.33;99772.97;2811334;84;21023;-72
2022/01/08 07:14:31;;;;;;;20.55;12.82;;;;;;;2.79;76.27;99775.12;2811237;84;21012;-72
2022/01/08 07:18:32;;;;;;;15.78;11.60;;;;;;;2.76;76.22;99775.78;2811550;84;21023;-72
2022/01/08 07:22:35;;;;;;;18.07;13.03;;;;;;;2.79;76.08;99777.74;2824878;84;21034;-71
2022/01/08 07:26:37;;;;;;;13.55;10.20;;;;;;;2.79;76.27;99776.91;2817338;84;21010;-72
2022/01/08 07:30:39;;;;;;;35.83;12.05;;;;;;;2.77;76.27;99778.79;2800480;83;21070;-72
2022/01/08 07:34:41;;;;;;;22.45;12.00;;;;;;;2.77;76.34;99782.73;2754833;85;21061;-72
2022/01/08 07:38:43;;;;;;;19.05;11.33;;;;;;;2.75;76.39;99784.56;2801909;83;21855;-72
2022/01/08 07:42:47;;;;;;;16.15;11.75;;;;;;;2.83;76.24;99788.93;2811415;84;21586;-72
2022/01/08 07:46:48;;;;;;;16.07;11.43;;;;;;;2.83;76.06;99791.56;2812056;84;21559;-72
2022/01/08 07:50:50;;;;;;;14.40;10.90;;;;;;;2.91;75.66;99797.20;2812038;84;21030;-72
2022/01/08 07:54:52;;;;;;;13.43;10.95;;;;;;;2.90;75.62;99792.89;2812070;84;20968;-72
2022/01/08 07:58:54;;;;;;;14.38;10.13;;;;;;;2.91;75.31;99786.70;2811869;84;21039;-72
2022/01/08 08:02:55;;;;;;;24.35;13.65;;;;;;;2.93;75.31;99791.39;2812058;84;21058;-72
2022/01/08 08:06:57;;;;;;;15.15;10.00;;;;;;;2.94;75.02;99785.20;2802630;84;21005;-72
2022/01/08 08:10:59;;;;;;;19.80;12.82;;;;;;;2.93;75.09;99784.82;2765399;86;21532;-72
2022/01/08 08:15:02;;;;;;;16.87;11.48;;;;;;;2.98;75.13;99774.91;2765575;85;21041;-72
2022/01/08 08:19:04;;;;;;;21.55;14.15;;;;;;;2.91;75.18;99781.92;2797148;84;21413;-72
2022/01/08 08:23:06;;;;;;;18.17;12.93;;;;;;;2.97;75.22;99776.30;2774325;84;21068;-72
2022/01/08 08:27:08;;;;;;;21.02;13.03;;;;;;;2.99;75.09;99773.11;2777617;84;21022;-72
2022/01/08 08:31:11;;;;;;;20.05;12.93;;;;;;;2.93;74.98;99767.74;2816515;82;21087;-72
2022/01/08 08:35:15;;;;;;;18.00;12.60;;;;;;;3.02;74.94;99765.53;2886599;82;21017;-72
2022/01/08 08:39:17;;;;;;;23.70;14.50;;;;;;;2.99;74.69;99761.29;2859734;82;21023;-72
2022/01/08 08:43:22;;;;;;;21.87;12.18;;;;;;;3.05;74.97;99765.34;2838181;83;20995;-71
2022/01/08 08:47:23;;;;;;;21.97;13.65;;;;;;;3.18;74.68;99768.09;2850309;82;21092;-71
2022/01/08 08:51:25;;;;;;;17.23;11.97;;;;;;;3.32;74.51;99765.94;2871456;83;20994;-76
2022/01/08 08:55:26;;;;;;;23.38;15.50;;;;;;;3.38;74.04;99770.86;2827215;83;21089;-75
2022/01/08 08:59:28;;;;;;;19.32;14.03;;;;;;;3.51;73.69;99777.05;2823253;83;21593;-76
2022/01/08 09:03:30;;;;;;;18.15;12.45;;;;;;;3.60;74.13;99786.64;2862411;83;20991;-73
2022/01/08 09:07:33;;;;;;;18.62;12.68;;;;;;;3.57;73.71;99795.55;2854677;81;20987;-75
2022/01/08 09:11:34;;;;;;;16.40;10.10;;;;;;;3.61;73.91;99806.27;2829210;83;21024;-75
2022/01/08 09:15:41;;;;;;;18.42;11.50;;;;;;;3.52;73.80;99809.46;2889881;81;21600;-75
2022/01/08 09:19:40;;;;;;;18.95;12.63;;;;;;;3.51;73.58;99805.97;2846803;82;21080;-75
2022/01/08 09:23:42;;;;;;;20.57;12.33;;;;;;;3.50;73.64;99816.60;2862749;83;21062;-75
2022/01/08 09:27:44;;;;;;;23.18;13.83;;;;;;;3.48;74.02;99810.11;2860019;83;21562;-74
2022/01/08 09:31:45;;;;;;;17.42;12.45;;;;;;;3.51;74.14;99811.72;2818804;83;20995;-78
2022/01/08 09:35:47;;;;;;;22.87;14.38;;;;;;;3.45;74.02;99809.47;2808470;81;20984;-77
2022/01/08 09:39:49;;;;;;;18.92;14.05;;;;;;;3.48;73.84;99807.96;2842979;83;21013;-77
2022/01/08 09:43:50;;;;;;;20.68;12.88;;;;;;;3.46;74.23;99812.47;2804772;83;21020;-77
2022/01/08 09:47:52;;;;;;;19.80;12.10;;;;;;;3.55;73.78;99808.82;2835763;83;21046;-77
2022/01/08 09:51:54;;;;;;;18.62;13.60;;;;;;;3.59;73.50;99807.31;2846994;81;21010;-78
2022/01/08 09:55:56;;;;;;;17.30;13.95;;;;;;;3.59;73.09;99806.83;2849921;81;21079;-78
2022/01/08 09:59:58;;;;;;;22.02;15.23;;;;;;;3.59;72.65;99803.37;2831265;83;21070;-78
2022/01/08 10:04:03;;;;;;;21.35;14.13;;;;;;;3.72;72.40;99792.45;2867523;83;21086;-77
2022/01/08 10:08:07;;;;;;;28.90;16.20;;;;;;;3.70;72.75;99784.67;2816151;83;21010;-78
2022/01/08 10:12:08;;;;;;;26.07;15.98;;;;;;;3.73;72.57;99778.84;2826439;83;20984;-78
2022/01/08 10:20:38;;;;;;;23.47;17.27;;;;;;;3.82;72.51;99777.81;2817428;83;21019;-78
2022/01/08 10:24:40;;;;;;;28.77;16.57;;;;;;;3.86;72.06;99770.58;2864896;81;21003;-73
2022/01/08 10:28:56;;;;;;;20.82;16.20;;;;;;;3.96;72.36;99774.80;2850132;81;20992;-76
2022/01/08 10:33:00;;;;;;;19.05;14.03;;;;;;;4.08;71.95;99775.33;2831601;83;21042;-78
2022/01/08 10:37:08;;;;;;;25.35;17.45;;;;;;;4.28;72.17;99775.84;2846389;83;21082;-79
2022/01/08 10:41:15;;;;;;;26.27;17.05;;;;;;;4.38;71.55;99763.80;2777919;84;20989;-78
2022/01/08 10:45:17;;;;;;;27.95;17.57;;;;;;;4.46;71.28;99763.76;2894819;82;21004;-78
2022/01/08 10:49:39;;;;;;;27.13;18.12;;;;;;;4.56;70.75;99758.28;2864561;82;21024;-77
2022/01/08 10:54:06;;;;;;;33.73;20.35;;;;;;;4.76;71.04;99758.77;2854113;83;21047;-78
2022/01/08 10:58:08;;;;;;;31.68;20.68;;;;;;;4.81;70.28;99749.58;2854226;83;29742;-76
2022/01/08 11:02:13;;;;;;;33.05;21.37;;;;;;;4.81;70.09;99752.70;2855547;83;21550;-74
2022/01/08 11:06:15;;;;;;;123.90;69.60;;;;;;;4.66;70.57;99750.13;2854308;83;21044;-77
2022/01/08 11:10:21;;;;;;;35.73;20.82;;;;;;;4.62;70.54;99740.75;2854126;83;21075;-74
2022/01/08 11:18:45;;;;;;;24.27;13.62;;;;;;;4.31;71.41;99725.62;2883705;80;21032;-76
2022/01/08 11:22:49;;;;;;;19.62;13.98;;;;;;;4.33;71.30;99721.58;2903881;82;21067;-78
2022/01/08 11:26:54;;;;;;;24.12;15.48;;;;;;;4.33;71.63;99718.48;2903476;82;21075;-78
2022/01/08 11:31:01;;;;;;;21.45;14.98;;;;;;;4.32;71.69;99719.89;2899437;82;21107;-78
2022/01/08 11:35:06;;;;;;;28.38;18.85;;;;;;;4.37;71.90;99717.34;2892466;82;21063;-77
2022/01/08 11:39:09;;;;;;;33.55;18.55;;;;;;;4.40;71.72;99715.82;2894195;82;20961;-79
2022/01/08 11:43:15;;;;;;;34.23;18.95;;;;;;;4.43;71.33;99709.03;2893506;82;21008;-75
2022/01/08 11:47:21;;;;;;;24.70;17.40;;;;;;;4.60;71.23;99703.13;2873881;82;21035;-76
2022/01/08 11:51:27;;;;;;;26.27;17.50;;;;;;;4.66;70.78;99697.44;2872017;82;21084;-76
2022/01/08 11:55:35;;;;;;;38.33;20.52;;;;;;;4.78;71.14;99690.98;2886839;82;21023;-75
2022/01/08 11:59:36;;;;;;;29.20;20.45;;;;;;;4.93;70.81;99683.37;2916695;81;20990;-76
2022/01/08 12:03:42;;;;;;;33.85;17.67;;;;;;;5.04;70.05;99682.64;2918707;81;21022;-73
2022/01/08 12:07:47;;;;;;;;;;;;;;;5.05;70.19;99669.83;2886377;81;21462;-77
2022/01/08 12:12:04;;;;;;;32.08;19.07;;;;;;;5.14;70.41;99669.66;2868998;83;20152;-78
2022/01/08 12:16:05;;;;;;;32.67;20.92;;;;;;;5.13;70.06;99658.75;2869159;82;21007;-78
2022/01/08 12:20:07;;;;;;;29.87;17.85;;;;;;;5.22;69.43;99642.27;2867223;81;21058;-74
2022/01/08 12:24:32;;;;;;;22.32;16.32;;;;;;;5.27;69.25;99641.47;2869271;83;21081;-74
2022/01/08 12:28:58;;;;;;;24.92;16.80;;;;;;;5.41;69.57;99640.98;2870341;83;21025;-73
2022/01/08 12:33:14;;;;;;;;;;;;;;;5.39;69.04;99641.57;2870562;81;21030;-74
2022/01/08 12:37:18;;;;;;;27.58;15.25;;;;;;;5.46;68.67;99628.30;2866712;83;20633;-72
2022/01/08 12:41:20;;;;;;;34.10;18.90;;;;;;;5.49;68.48;99629.40;2841970;83;21010;-72
2022/01/08 12:45:34;;;;;;;27.55;14.07;;;;;;;5.40;67.70;99634.02;2840779;84;21026;-72
2022/01/08 12:49:36;;;;;;;29.90;16.80;;;;;;;5.24;68.12;99630.31;2839812;82;21080;-71
2022/01/08 12:53:37;;;;;;;29.72;18.55;;;;;;;5.32;68.20;99628.45;2841812;83;21025;-71
2022/01/08 12:57:39;;;;;;;26.15;17.25;;;;;;;5.20;68.49;99620.45;2841826;83;21053;-70
2022/01/08 13:01:48;;;;;;;25.77;18.20;;;;;;;5.26;68.75;99627.92;2842036;84;21510;-71
2022/01/08 13:05:51;;;;;;;29.10;18.00;;;;;;;5.25;69.12;99619.64;2841273;84;21038;-72
2022/01/08 13:09:59;;;;;;;41.80;24.87;;;;;;;5.12;68.57;99615.70;2815005;84;21752;-72
2022/01/08 13:14:09;;;;;;;25.80;18.60;;;;;;;5.18;68.23;99618.86;2842205;83;21387;-72
2022/01/08 13:18:24;;;;;;;24.70;18.52;;;;;;;5.15;68.06;99621.25;2841763;83;21058;-71
2022/01/08 13:22:26;;;;;;;22.73;18.60;;;;;;;5.19;68.55;99618.77;2842149;83;21077;-71
2022/01/08 13:26:35;;;;;;;27.42;16.77;;;;;;;5.20;68.65;99619.13;2842160;83;21006;-72
2022/01/08 13:30:36;;;;;;;24.57;16.12;;;;;;;5.09;68.37;99626.94;2839947;83;20987;-72
2022/01/08 13:34:42;;;;;;;26.50;19.67;;;;;;;5.12;68.34;99618.84;2828464;84;21007;-71
2022/01/08 13:38:43;;;;;;;31.10;18.23;;;;;;;5.09;68.72;99618.56;2827977;84;21042;-72
2022/01/08 13:42:45;;;;;;;23.92;16.80;;;;;;;5.08;68.64;99616.88;2828592;84;21008;-72
2022/01/08 13:46:47;;;;;;;21.93;15.53;;;;;;;4.95;68.91;99615.58;2821887;84;21054;-72
2022/01/08 13:50:56;;;;;;;48.40;30.43;;;;;;;4.93;69.27;99610.89;2778247;85;21514;-73
2022/01/08 13:54:52;;;;;;;121.13;66.80;;;;;;;4.93;69.58;99612.66;2776265;85;21078;-73
2022/01/08 13:59:06;;;;;;;69.95;40.83;;;;;;;4.79;69.43;99610.98;2777404;85;21011;-74
2022/01/08 14:03:22;;;;;;;35.80;23.12;;;;;;;4.91;69.48;99614.08;2777674;85;21050;-75
2022/01/08 14:07:38;;;;;;;39.00;23.63;;;;;;;4.92;69.40;99617.11;2777242;85;21031;-75
2022/01/08 14:11:39;;;;;;;71.92;36.65;;;;;;;4.92;69.87;99613.16;2777702;85;21010;-74
2022/01/08 14:15:44;;;;;;;97.55;47.85;;;;;;;4.79;70.32;99611.81;2776663;85;21043;-74
2022/01/08 14:19:47;;;;;;;215.35;106.97;;;;;;;4.89;70.33;99608.56;2819941;83;21058;-76
2022/01/08 14:23:49;;;;;;;145.45;78.60;;;;;;;4.83;70.93;99604.09;2826697;84;21081;-75
2022/01/08 14:27:51;;;;;;;111.70;62.33;;;;;;;4.90;70.87;99607.13;2826137;84;21031;-74
2022/01/08 14:32:00;;;;;;;104.85;62.05;;;;;;;4.93;70.74;99608.25;2822302;84;20995;-74
2022/01/08 14:36:02;;;;;;;67.70;44.10;;;;;;;5.03;70.74;99602.33;2817754;84;21066;-76
2022/01/08 14:40:21;;;;;;;37.03;29.40;;;;;;;5.09;70.61;99609.80;2817549;84;21066;-77
2022/01/08 14:44:28;;;;;;;24.35;19.37;;;;;;;5.19;70.73;99605.58;2818010;84;21050;-76
2022/01/08 14:48:29;;;;;;;31.27;20.68;;;;;;;5.28;70.48;99604.91;2818202;83;21086;-76
2022/01/08 14:52:31;;;;;;;26.50;16.00;;;;;;;5.28;70.69;99608.88;2819322;84;20968;-77
2022/01/08 14:56:33;;;;;;;41.20;22.05;;;;;;;5.37;70.10;99603.42;2819093;84;21071;-77
2022/01/08 15:00:35;;;;;;;67.70;37.58;;;;;;;5.42;70.32;99604.42;2817677;84;20996;-75
2022/01/08 15:04:37;;;;;;;72.80;44.42;;;;;;;5.39;70.54;99605.96;2817285;84;21110;-75
2022/01/08 15:08:39;;;;;;;97.30;56.42;;;;;;;5.34;70.60;99608.09;2817788;84;21011;-76
2022/01/08 15:12:40;;;;;;;66.40;38.73;;;;;;;5.21;70.35;99607.63;2817441;84;21062;-75
2022/01/08 15:16:42;;;;;;;27.93;17.73;;;;;;;5.20;70.32;99607.72;2817422;84;21054;-72
2022/01/08 15:20:44;;;;;;;20.88;12.70;;;;;;;5.15;69.42;99610.70;2817130;84;21042;-76
2022/01/08 15:24:45;;;;;;;16.50;11.60;;;;;;;5.12;69.77;99617.02;2817147;84;21062;-76
2022/01/08 15:28:47;;;;;;;19.65;12.90;;;;;;;5.13;70.21;99621.84;2817683;84;21038;-77
2022/01/08 15:32:48;;;;;;;22.42;17.42;;;;;;;4.93;70.55;99635.06;2822142;84;21526;-76
2022/01/08 15:36:51;;;;;;;17.30;14.40;;;;;;;4.72;71.80;99630.32;2825814;84;21038;-76
2022/01/08 15:40:53;;;;;;;25.30;20.85;;;;;;;4.53;73.97;99631.56;2825475;84;21520;-75
2022/01/08 15:44:54;;;;;;;87.60;59.18;;;;;;;4.45;74.62;99629.07;2825886;84;21046;-77
2022/01/08 15:48:56;;;;;;;56.40;38.35;;;;;;;4.34;75.48;99626.70;2826507;83;21554;-76
2022/01/08 15:52:58;;;;;;;26.93;19.82;;;;;;;4.22;76.79;99625.69;2826619;84;21018;-77
2022/01/08 15:57:00;;;;;;;33.02;17.85;;;;;;;4.13;77.47;99615.33;2826800;84;21713;-75
2022/01/08 16:01:04;;;;;;;30.45;18.50;;;;;;;4.14;78.31;99614.38;2826954;84;20994;-75
2022/01/08 16:05:06;;;;;;;28.38;18.40;;;;;;;4.07;79.62;99607.81;2826526;84;21030;-76
2022/01/08 16:09:08;;;;;;;25.40;17.62;;;;;;;4.05;79.99;99605.75;2826664;84;21714;-75
2022/01/08 16:13:09;;;;;;;27.67;18.20;;;;;;;3.95;80.79;99603.38;2827320;84;21006;-74
2022/01/08 16:17:11;;;;;;;27.05;18.05;;;;;;;3.88;81.49;99600.75;2826290;83;21058;-74
2022/01/08 16:21:13;;;;;;;47.10;28.12;;;;;;;3.90;81.15;99593.59;2816884;82;20956;-74
2022/01/08 16:25:14;;;;;;;27.62;19.05;;;;;;;3.87;81.71;99586.77;2869182;81;21034;-74
2022/01/08 16:29:20;;;;;;;24.90;16.87;;;;;;;3.91;81.37;99580.80;2854759;83;21514;-74
2022/01/08 16:33:22;;;;;;;25.80;17.90;;;;;;;3.96;81.76;99587.46;2822030;81;21064;-75
2022/01/08 16:37:24;;;;;;;20.68;15.23;;;;;;;3.82;82.17;99586.20;2799856;84;20972;-75
2022/01/08 16:41:27;;;;;;;23.35;17.75;;;;;;;3.71;82.49;99585.12;2749530;86;21054;-75
2022/01/08 16:45:30;;;;;;;25.60;17.62;;;;;;;3.82;81.14;99582.25;2773549;86;21097;-76
2022/01/08 16:49:32;;;;;;;25.97;17.75;;;;;;;3.94;80.42;99584.58;2815948;84;21041;-76
2022/01/08 16:53:38;;;;;;;28.90;16.42;;;;;;;3.95;79.94;99581.00;2825640;84;21487;-76
2022/01/08 16:57:37;;;;;;;22.67;17.12;;;;;;;4.02;79.23;99577.02;2808814;84;21023;-75
2022/01/08 17:01:38;;;;;;;23.35;17.82;;;;;;;4.02;78.55;99577.02;2823352;83;21065;-77
2022/01/08 17:05:42;;;;;;;31.35;22.58;;;;;;;4.02;78.35;99574.37;2823211;83;21592;-74
2022/01/08 17:09:43;;;;;;;84.25;49.60;;;;;;;4.04;77.86;99569.86;2823027;84;21057;-75
2022/01/08 17:13:46;;;;;;;80.03;44.48;;;;;;;3.98;78.33;99571.09;2823601;83;21009;-77
2022/01/08 17:17:48;;;;;;;98.03;58.70;;;;;;;3.75;78.93;99562.55;2825639;84;21038;-75
2022/01/08 17:21:50;;;;;;;87.40;53.65;;;;;;;3.54;79.73;99566.48;2825369;84;21088;-77
2022/01/08 17:25:56;;;;;;;93.70;54.73;;;;;;;3.29;80.85;99563.27;2825372;84;21669;-76
2022/01/08 17:29:55;;;;;;;58.48;34.33;;;;;;;2.91;83.68;99556.81;2824456;84;21073;-77
2022/01/08 17:33:56;;;;;;;63.87;35.63;;;;;;;2.65;85.30;99559.26;2829714;84;21539;-76
2022/01/08 17:37:58;;;;;;;69.12;36.25;;;;;;;2.49;86.38;99550.16;2825141;82;21085;-76
2022/01/08 17:42:00;;;;;;;73.07;39.65;;;;;;;2.29;87.80;99536.90;2809012;82;21046;-78
2022/01/08 17:46:02;;;;;;;71.50;39.75;;;;;;;2.24;88.29;99540.27;2807154;82;21614;-75
2022/01/08 17:50:06;;;;;;;78.87;44.33;;;;;;;2.18;89.04;99527.52;2892007;82;21051;-75
2022/01/08 17:54:08;;;;;;;147.37;84.30;;;;;;;2.19;89.50;99531.84;2900430;82;21051;-74
2022/01/08 17:58:09;;;;;;;132.00;73.47;;;;;;;2.32;88.45;99530.63;2900617;82;21000;-75
2022/01/08 18:02:13;;;;;;;255.37;136.10;;;;;;;2.50;87.54;99524.73;2900411;82;21671;-75
2022/01/08 18:06:16;;;;;;;164.97;87.82;;;;;;;2.71;86.70;99528.67;2900899;82;21005;-75
2022/01/08 18:10:17;;;;;;;107.00;69.15;;;;;;;3.00;86.46;99526.04;2900618;82;21028;-75
2022/01/08 18:14:19;;;;;;;74.25;55.03;;;;;;;3.20;85.13;99523.94;2855763;81;21021;-75
2022/01/08 18:18:20;;;;;;;78.67;48.92;;;;;;;3.28;83.98;99521.66;2847289;81;21007;-75
2022/01/08 18:22:24;;;;;;;59.30;35.75;;;;;;;3.36;83.37;99515.91;2861382;81;21057;-75
2022/01/08 18:26:25;;;;;;;68.37;43.68;;;;;;;3.41;83.02;99514.31;2824652;84;21015;-76
2022/01/08 18:30:28;;;;;;;62.03;42.70;;;;;;;3.47;82.59;99509.12;2848871;81;20984;-76
2022/01/08 18:34:29;;;;;;;51.23;35.88;;;;;;;3.54;82.61;99507.32;2795719;83;21335;-76
2022/01/08 18:38:31;;;;;;;42.83;28.65;;;;;;;3.58;82.11;99506.63;2815681;84;21070;-75
2022/01/08 18:42:33;;;;;;;41.68;29.25;;;;;;;3.50;81.89;99505.81;2814121;84;21035;-75
2022/01/08 18:46:34;;;;;;;45.20;32.45;;;;;;;3.46;81.78;99506.95;2767820;84;21026;-75
2022/01/08 18:50:36;;;;;;;54.65;34.43;;;;;;;3.39;82.12;99502.56;2815506;84;21022;-75
2022/01/08 18:54:42;;;;;;;46.68;30.17;;;;;;;3.37;82.60;99497.05;2815466;84;21014;-75
2022/01/08 18:58:41;;;;;;;52.65;30.35;;;;;;;3.34;83.59;99495.45;2814953;84;21078;-74
2022/01/08 19:02:44;;;;;;;65.28;37.50;;;;;;;3.33;83.54;99488.96;2815185;84;21034;-76
2022/01/08 19:06:45;;;;;;;65.70;39.03;;;;;;;3.29;84.60;99482.59;2815078;84;21045;-76
2022/01/08 19:10:47;;;;;;;50.63;35.25;;;;;;;3.20;85.34;99480.58;2815063;84;21062;-76
2022/01/08 19:14:49;;;;;;;75.30;43.98;;;;;;;3.18;85.73;99477.20;2815328;84;21523;-76
2022/01/08 19:18:50;;;;;;;52.20;36.08;;;;;;;3.27;85.50;99467.40;2784110;84;21066;-76